createdAt,value
2023-01-18T00:15:14.820Z,44.40
2023-01-18T00:19:18.530Z,50.83
2023-01-18T00:21:20.917Z,47.28
2023-01-18T00:23:22.900Z,51.22
2023-01-18T00:25:24.972Z,46.40
2023-01-18T00:29:31.347Z,45.58
2023-01-18T00:31:33.514Z,35.42
2023-01-18T00:35:37.273Z,44.90
2023-01-18T00:37:39.467Z,52.05
2023-01-18T00:39:41.423Z,45.40
2023-01-18T00:42:03.224Z,40.88
2023-01-18T00:44:06.932Z,48.13
2023-01-18T00:46:17.551Z,52.33
2023-01-18T00:48:19.433Z,57.08
2023-01-18T00:50:22.519Z,43.50
2023-01-18T00:52:24.653Z,51.75
2023-01-18T00:56:28.846Z,60.10
2023-01-18T00:58:30.835Z,43.15
2023-01-18T01:00:33.511Z,47.30
2023-01-18T01:02:39.819Z,56.75
2023-01-18T01:05:00.152Z,51.97
2023-01-18T01:07:02.064Z,54.63
2023-01-18T01:09:05.046Z,58.67
2023-01-18T01:11:11.708Z,50.67
2023-01-18T01:13:37.733Z,55.30
2023-01-18T01:15:58.104Z,54.70
2023-01-18T01:18:18.832Z,45.35
2023-01-18T01:20:39.748Z,57.08
2023-01-18T01:23:00.382Z,44.08
2023-01-18T01:25:21.215Z,45.58
2023-01-18T01:27:23.123Z,46.80
2023-01-18T01:29:24.936Z,55.55
2023-01-18T01:31:26.862Z,43.42
2023-01-18T01:33:29.798Z,50.22
2023-01-18T01:35:31.703Z,49.92
2023-01-18T01:37:34.104Z,48.97
2023-01-18T01:39:36.016Z,53.75
2023-01-18T01:41:38.324Z,41.40
2023-01-18T01:43:49.311Z,51.90
2023-01-18T01:45:52.856Z,44.47
2023-01-18T01:47:58.342Z,46.83
2023-01-18T01:50:11.592Z,44.53
2023-01-18T01:52:32.841Z,52.97
2023-01-18T01:55:12.130Z,47.47
2023-01-18T01:57:24.476Z,41.55
2023-01-18T02:01:29.677Z,47.45
2023-01-18T04:16:05.759Z,41.08
2023-01-18T04:18:07.644Z,44.40
2023-01-18T04:20:10.180Z,50.03
2023-01-18T04:22:12.315Z,40.65
2023-01-18T04:26:16.785Z,46.80
2023-01-18T04:28:25.436Z,40.47
2023-01-18T04:30:27.492Z,39.90
2023-01-18T04:34:31.562Z,47.37
2023-01-18T04:36:33.455Z,46.20
2023-01-18T04:38:35.385Z,39.50
2023-01-18T04:40:37.282Z,38.47
2023-01-18T04:42:39.120Z,45.20
2023-01-18T04:44:40.956Z,37.50
2023-01-18T04:46:43.561Z,35.45
2023-01-18T04:48:50.051Z,48.08
2023-01-18T04:50:52.157Z,32.35
2023-01-18T04:54:55.770Z,36.40
2023-01-18T04:56:57.726Z,42.25
2023-01-18T04:58:59.734Z,28.42
2023-01-18T05:01:03.695Z,35.70
2023-01-18T05:03:09.959Z,34.17
2023-01-18T05:05:11.991Z,36.65
2023-01-18T05:07:13.847Z,36.70
2023-01-18T05:09:16.010Z,30.00
2023-01-18T05:13:21.173Z,32.45
2023-01-18T05:15:23.106Z,34.65
2023-01-18T05:17:30.556Z,36.33
2023-01-18T05:19:32.597Z,35.28
2023-01-18T05:21:34.453Z,27.60
2023-01-18T05:23:36.538Z,34.53
2023-01-18T05:27:41.145Z,26.75
2023-01-18T05:29:44.050Z,36.33
2023-01-18T05:31:46.003Z,31.77
2023-01-18T05:33:47.967Z,30.77
2023-01-18T05:35:55.012Z,31.52
2023-01-18T05:37:56.925Z,27.60
2023-01-18T05:39:59.338Z,24.83
2023-01-18T05:42:01.562Z,29.45
2023-01-18T05:44:03.633Z,21.83
2023-01-18T05:48:07.705Z,27.63
2023-01-18T05:52:12.093Z,30.58
2023-01-18T05:54:14.046Z,33.60
2023-01-18T05:56:16.071Z,28.23
2023-01-18T05:58:17.930Z,26.83
2023-01-18T06:00:20.268Z,30.92
2023-01-18T08:15:39.629Z,17.75
2023-01-18T08:17:42.409Z,13.70
2023-01-18T08:19:44.275Z,13.15
2023-01-18T08:21:47.725Z,13.30
2023-01-18T08:23:52.536Z,16.70
2023-01-18T08:25:55.490Z,12.23
2023-01-18T08:28:00.312Z,12.85
2023-01-18T08:30:02.213Z,14.88
2023-01-18T08:32:04.116Z,16.67
2023-01-18T08:34:06.016Z,15.82
2023-01-18T08:36:12.125Z,15.45
2023-01-18T08:38:15.801Z,11.60
2023-01-18T08:40:19.164Z,12.35
2023-01-18T08:42:21.047Z,15.57
2023-01-18T08:44:23.276Z,15.23
2023-01-18T08:46:26.076Z,12.95
2023-01-18T08:48:28.037Z,16.05
2023-01-18T08:50:31.671Z,12.27
2023-01-18T08:52:35.060Z,11.02
2023-01-18T08:54:36.999Z,14.32
2023-01-18T08:56:38.842Z,14.40
2023-01-18T08:58:40.998Z,13.88
2023-01-18T09:02:44.663Z,11.20
2023-01-18T09:04:48.668Z,20.25
2023-01-18T09:06:51.820Z,13.55
2023-01-18T09:08:53.949Z,14.93
2023-01-18T09:12:58.188Z,17.00
2023-01-18T09:15:00.343Z,11.95
2023-01-18T09:17:02.393Z,13.85
2023-01-18T09:21:10.854Z,14.95
2023-01-18T09:23:12.880Z,17.80
2023-01-18T09:25:14.982Z,19.15
2023-01-18T09:29:18.649Z,14.97
2023-01-18T09:31:22.473Z,13.65
2023-01-18T09:33:31.236Z,14.75
2023-01-18T09:35:38.762Z,12.93
2023-01-18T09:37:40.624Z,14.95
2023-01-18T09:39:51.405Z,19.17
2023-01-18T09:41:58.985Z,21.13
2023-01-18T09:44:16.757Z,17.08
2023-01-18T09:46:20.808Z,10.63
2023-01-18T09:48:32.999Z,18.05
2023-01-18T09:50:42.767Z,14.65
2023-01-18T09:53:02.337Z,14.52
2023-01-18T09:55:19.131Z,15.15
2023-01-18T09:57:32.115Z,18.02
2023-01-18T09:59:53.337Z,18.33
2023-01-18T10:01:56.258Z,17.52
2023-01-18T12:24:21.098Z,15.43
2023-01-18T12:26:35.374Z,11.68
2023-01-18T12:29:08.070Z,15.50
2023-01-18T12:33:43.846Z,11.77
2023-01-18T12:35:56.344Z,13.65
2023-01-18T12:40:26.658Z,13.65
2023-01-18T12:42:52.112Z,15.63
2023-01-18T12:45:02.349Z,17.50
2023-01-18T12:47:28.250Z,13.50
2023-01-18T12:49:36.808Z,16.30
2023-01-18T12:51:40.399Z,12.88
2023-01-18T12:54:18.284Z,14.20
2023-01-18T12:56:25.653Z,21.60
2023-01-18T12:58:28.524Z,15.30
2023-01-18T13:00:39.305Z,18.63
2023-01-18T13:02:48.057Z,13.60
2023-01-18T13:05:23.888Z,14.65
2023-01-18T13:07:48.210Z,13.95
2023-01-18T13:09:50.789Z,13.85
2023-01-18T13:11:52.880Z,19.85
2023-01-18T13:16:25.603Z,12.70
2023-01-18T13:19:06.282Z,17.48
2023-01-18T13:21:20.652Z,13.10
2023-01-18T13:23:44.474Z,14.88
2023-01-18T13:26:04.562Z,17.10
2023-01-18T13:28:28.160Z,23.17
2023-01-18T13:30:33.108Z,17.92
2023-01-18T13:32:37.742Z,16.10
2023-01-18T13:34:48.073Z,18.42
2023-01-18T13:36:50.392Z,16.02
2023-01-18T13:41:05.519Z,18.95
2023-01-18T13:43:34.590Z,20.67
2023-01-18T13:46:02.949Z,12.88
2023-01-18T13:48:25.785Z,21.17
2023-01-18T13:50:38.078Z,16.90
2023-01-18T13:54:46.710Z,14.45
2023-01-18T13:57:01.195Z,16.80
2023-01-18T13:59:11.939Z,19.42
2023-01-18T14:01:25.182Z,17.95
2023-01-18T16:14:58.198Z,15.77
2023-01-18T16:17:10.720Z,16.90
2023-01-18T16:21:33.918Z,15.90
2023-01-18T16:23:35.992Z,18.13
2023-01-18T16:27:51.557Z,14.68
2023-01-18T16:29:57.973Z,20.27
2023-01-18T16:32:39.546Z,18.50
2023-01-18T16:34:41.701Z,12.50
2023-01-18T16:36:43.572Z,19.63
2023-01-18T16:38:45.588Z,21.27
2023-01-18T16:40:50.212Z,19.45
2023-01-18T16:43:04.930Z,19.02
2023-01-18T16:45:14.117Z,13.70
2023-01-18T16:47:18.077Z,22.45
2023-01-18T16:49:21.417Z,16.38
2023-01-18T16:51:26.068Z,16.88
2023-01-18T16:53:29.139Z,14.15
2023-01-18T16:55:31.116Z,17.00
2023-01-18T16:57:33.217Z,18.08
2023-01-18T17:01:38.274Z,19.85
2023-01-18T17:03:45.192Z,18.20
2023-01-18T17:05:47.202Z,18.42
2023-01-18T17:07:50.787Z,16.65
2023-01-18T17:09:53.476Z,15.00
2023-01-18T17:11:55.633Z,14.40
2023-01-18T17:16:02.453Z,14.27
2023-01-18T17:18:08.366Z,15.10
2023-01-18T17:20:22.992Z,17.80
2023-01-18T17:22:25.307Z,17.75
2023-01-18T17:24:29.159Z,14.95
2023-01-18T17:26:31.261Z,20.02
2023-01-18T17:30:36.958Z,17.45
2023-01-18T17:32:38.893Z,19.58
2023-01-18T17:34:40.822Z,17.65
2023-01-18T17:36:42.903Z,18.05
2023-01-18T17:38:45.261Z,19.15
2023-01-18T17:40:47.169Z,20.35
2023-01-18T17:42:49.089Z,13.60
2023-01-18T17:45:02.292Z,18.48
2023-01-18T17:47:04.232Z,22.38
2023-01-18T17:49:06.692Z,16.92
2023-01-18T17:51:12.007Z,24.05
2023-01-18T17:53:15.330Z,23.38
2023-01-18T17:55:27.316Z,24.70
2023-01-18T17:57:32.584Z,21.20
2023-01-18T17:59:34.645Z,17.75
2023-01-18T20:05:21.223Z,39.70
2023-01-18T20:07:23.372Z,30.77
2023-01-18T20:11:44.887Z,29.83
2023-01-18T20:13:51.170Z,23.88
2023-01-18T20:15:54.651Z,35.03
2023-01-18T20:17:56.555Z,33.15
2023-01-18T20:19:58.413Z,35.90
2023-01-18T20:22:00.346Z,23.90
2023-01-18T20:24:02.308Z,26.95
2023-01-18T20:26:05.489Z,35.72
2023-01-18T20:28:08.097Z,30.40
2023-01-18T20:30:10.598Z,37.92
2023-01-18T20:32:16.674Z,35.42
2023-01-18T20:34:19.489Z,34.13
2023-01-18T20:36:21.406Z,47.85
2023-01-18T20:38:23.403Z,33.33
2023-01-18T20:40:25.283Z,34.88
2023-01-18T20:42:27.215Z,39.47
2023-01-18T20:44:29.097Z,35.63
2023-01-18T20:46:30.981Z,29.02
2023-01-18T20:48:33.760Z,41.85
2023-01-18T20:50:35.816Z,29.17
2023-01-18T20:54:39.684Z,33.80
2023-01-18T20:56:41.581Z,42.05
2023-01-18T20:58:43.465Z,64.45
2023-01-18T21:00:45.397Z,35.20
2023-01-18T21:02:47.382Z,32.28
2023-01-18T21:04:49.284Z,39.40
2023-01-18T21:06:51.264Z,34.30
2023-01-18T21:12:57.952Z,36.57
2023-01-18T21:15:00.169Z,51.03
2023-01-18T21:19:03.869Z,45.17
2023-01-18T21:21:05.936Z,38.97
2023-01-18T21:25:10.718Z,33.00
2023-01-18T21:27:12.661Z,30.70
2023-01-18T21:29:15.860Z,30.65
2023-01-18T21:31:17.891Z,35.05
2023-01-18T21:35:22.121Z,32.50
2023-01-18T21:37:24.088Z,31.17
2023-01-18T21:39:26.119Z,35.80
2023-01-18T21:44:07.393Z,30.08
2023-01-18T21:46:11.062Z,49.40
2023-01-18T21:48:13.025Z,33.95
2023-01-18T21:50:33.618Z,32.30
2023-01-18T21:52:56.815Z,43.58
2023-01-18T21:54:58.715Z,34.45
2023-01-18T21:57:00.606Z,44.97
2023-01-18T21:59:19.774Z,33.42
2023-01-18T22:01:26.905Z,43.60
